메인 페이지
METAR-TAF:

METAR-TAF

공항 :

상조제두스캄푸스, 상파울루, 브라질

위도: 23-14S, 경도: 045-52W, 고도: 646m

현재 날씨관측

예보는 53분 전, 23:00시(UTC)에 발표되었습니다.
동남동10kt
온도 23°C
습도 83%
기압 1017 hPa
시정 10km 이상
고도 4000ft 상공 구름 많음

METAR: SBSJ 142300Z 12010KT 9999 BKN040 23/20 Q1017

시각: 20:53 (23:53 UTC)

예보

예보는 1 시간 53분 전, 22:00시(UTC)에 발표되었습니다.
예보 대상 시간: 15일 00시부터 15일 12시까지 (UTC)
남동7kt
시정: 8000m
고도 1500ft 상공 구름 보통
전환 중
15일 00시부터 15일 02시까지 (UTC)
동북동5kt
고도 1000ft 상공 구름 많음
전환 중
15일 04시부터 15일 06시까지 (UTC)
여러 방향의 바람 3kt
시정: 5000m
고도 1000ft 상공 구름 조금
박무
확률 30%
15일 09시부터 15일 12시까지 (UTC)
동북동5kt
시정: 4000m
고도 600ft 상공 구름 많음
박무

TAF: SBSJ 142200Z 1500/1512 14007KT 8000 SCT015 TN20/1508Z TX23/1512Z BECMG 1500/1502 07005KT BKN010 BECMG 1504/1506 VRB03KT 5000 BR FEW010 PROB30 1509/1512 06005KT 4000 BR BKN006 RMK PHH

4,000개 이상의 공항 관측 자료 및 예보 (METAR 및 TAF 보고).

지도상에서 검색 가능한 기상관측소가 노란 점과 빨간 점으로 표시되어 있습니다.

기상관측소 명을 보려면 표시 위로 마우스를 이동하세요.

날씨 관측과 예보를 보려면 클릭하세요.

지도 변경 : 확대하려면 엑스 표시가 있는 녹색 버튼, 축소하려면 빼기 표시가 있는 녹색 버튼, 다음 페이지의 지도를 보려면 녹색 화살표를 클릭하세요.


METAR-TAF: